This is the latest recevied weather packets stored in our database for station/object K7CTM. If no packets are shown the sender has not sent any weather packets the latest 10 day(s).
| Time | Temp. | Humidity | Pressure | Rain* | Wind** | Luminosity | Snow |
|---|---|---|---|---|---|---|---|
| 1778004537 | 8.89° C | 39% | 1026.5 hPa | 0 mm | - | 339 W/m² | - |
| 1778004233 | 8.33° C | 40% | 1026.6 hPa | 0 mm | - | 459 W/m² | - |
| 1778003930 | 9.44° C | 39% | 1026.8 hPa | 0 mm | - | 406 W/m² | - |
| 1778003626 | 8.89° C | 41% | 1026.8 hPa | 0 mm | - | 500 W/m² | - |
| 1778003323 | 7.78° C | 42% | 1026.5 hPa | 0 mm | - | 516 W/m² | - |
| 1778003021 | 7.78° C | 41% | 1026.8 hPa | 0 mm | - | 318 W/m² | - |
| 1778002716 | 7.78° C | 42% | 1026.6 hPa | 0 mm | - | 315 W/m² | - |
| 1778002413 | 7.78° C | 42% | 1026.6 hPa | 0 mm | - | 354 W/m² | - |
| 1778002110 | 7.78° C | 43% | 1026.6 hPa | 0 mm | - | 318 W/m² | - |
| 1778001808 | 8.33° C | 41% | 1026.5 hPa | 0 mm | - | 280 W/m² | - |
| 1778001507 | 8.33° C | 42% | 1026.6 hPa | 0 mm | - | 665 W/m² | - |
| 1778001199 | 7.22° C | 42% | 1026.6 hPa | 0 mm | - | 241 W/m² | - |
| 1778000896 | 7.22° C | 42% | 1026.8 hPa | 0 mm | - | 275 W/m² | - |
| 1778000593 | 7.22° C | 43% | 1026.8 hPa | 0 mm | - | 258 W/m² | - |
| 1778000288 | 7.22° C | 42% | 1026.9 hPa | 0 mm | - | 273 W/m² | - |
| 1777999984 | 7.22° C | 44% | 1027 hPa | 0 mm | - | 282 W/m² | - |
| 1777999679 | 7.22° C | 45% | 1026.6 hPa | 0 mm | - | 192 W/m² | - |
| 1777999377 | 7.78° C | 43% | 1026.6 hPa | 0 mm | - | 213 W/m² | - |
| 1777999075 | 7.78° C | 42% | 1026.6 hPa | 0 mm | - | 284 W/m² | - |
| 1777998773 | 7.78° C | 40% | 1026.9 hPa | 0 mm | - | 240 W/m² | - |
| 1777998470 | 8.33° C | 40% | 1026.8 hPa | 0 mm | - | 290 W/m² | - |
| 1777998167 | 8.89° C | 40% | 1026.8 hPa | 0 mm | - | 439 W/m² | - |
| 1777997865 | 7.78° C | 44% | 1026.9 hPa | 0 mm | - | 503 W/m² | - |
| 1777997562 | 6.67° C | 45% | 1026.9 hPa | 0 mm | - | 683 W/m² | - |
| 1777997259 | 7.22° C | 45% | 1027.2 hPa | 0 mm | - | 252 W/m² | - |
* Rain latest hour (hover to see other rain measurements)
** Current wind speed in m/s (hover to see current wind gust speed)